Nearby METAR Reports

 

K1V6 - Canon City, Colorado, USA
Distance from station: NE 34mi, 55km
Updated: 04/20/2021 4:35pm MDT
Overcast
Overcast
 Wind from S
Wind: S 6 mph , 9 km/h
Temperature: 37°F , 3°C
Wind Chill: 32°F , 0°C
Dew Point: 25°F , -4°C
Humidity: 60%
Barometer: 30.15 inHg , 1021 hPa
Clouds: Overcast
Visibility: 10 miles , 16 km
Cloud details: Overcast 3700 ft
2021/04/20 22:35 K1V6 202235Z AUTO 18005KT 10SM OVC037 03/M04 A3015 RMK AO2
K04V - Saguache Muni, Colorado, USA
Distance from station: W 35mi, 56km
Updated: 04/20/2021 4:35pm MDT
Clear
Clear
 Wind from NW
Wind: NW 10 mph , 17 km/h, Gust: 16 mph , 26 km/h
Temperature: 50°F , 10°C
Wind Chill: 46°F , 8°C
Dew Point: 5°F , -15°C
Humidity: 16%
Barometer: 29.95 inHg , 1014.2 hPa
Clouds: Clear
Visibility: 10 miles , 16 km
2021/04/20 22:35 K04V 202235Z AUTO 32009G14KT 10SM CLR 10/M15 A2995 RMK AO2
 
KANK - Salida, Colorado, USA
Distance from station: NW 43mi, 69km
Updated: 04/20/2021 4:35pm MDT
Clear
Clear
 Wind from ESE
Wind: ESE 21 mph , 33 km/h, Gust: 28 mph , 44 km/h
Temperature: 41°F , 5°C
Wind Chill: 32°F , 0°C
Dew Point: 23°F , -5°C
Humidity: 49%
Barometer: 30.08 inHg , 1018.6 hPa
Clouds: Clear
Visibility: 10 miles , 16 km
2021/04/20 22:35 KANK 202235Z AUTO 11018G24KT 10SM CLR 05/M05 A3008 RMK AO1 T00471051
KVTP - La Veta Pass, Colorado, USA
Distance from station: SSE 44mi, 71km
Updated: 04/20/2021 4:35pm MDT
Freezing fog, Overcast
Freezing fog, Overcast
 Wind from E
Wind: E 9 mph , 15 km/h
Temperature: 18°F , -8°C
Wind Chill: 7°F , -14°C
Dew Point: 14°F , -10°C
Humidity: 86%
Barometer: 30.04 inHg , 1017.3 hPa
Summary: Freezing Fog
Clouds: Overcast
Visibility: less than 1/4 mile , 0.4 km
Cloud details: Overcast 100 ft
2021/04/20 22:35 KVTP 202235Z AUTO 08008KT M1/4SM FZFG OVC001 M08/M10 A3004 RMK AO2
 
KALS - Alamosa, Colorado, USA
Distance from station: SSW 48mi, 77km
Updated: 04/20/2021 3:52pm MDT
Clear
Clear
 Wind from varies
Wind: varies 3 mph , 6 km/h
Temperature: 54°F , 12°C
Dew Point: 12°F , -11°C
Humidity: 19%
Barometer: 29.93 inHg , 1013.5 hPa
Clouds: Clear
Visibility: 10 miles , 16 km
2021/04/20 21:52 KALS 202152Z AUTO VRB03KT 10SM CLR 12/M11 A2993 RMK AO2 SLP096 T01221106